createdAt,value
2017-07-23T00:02:23.318Z,0
2017-07-23T00:12:38.366Z,0
2017-07-23T00:22:53.280Z,0
2017-07-23T00:33:07.840Z,0
2017-07-23T00:43:21.928Z,0
2017-07-23T00:53:36.674Z,0
2017-07-23T01:03:51.315Z,0
2017-07-23T01:14:05.742Z,0
2017-07-23T01:24:20.909Z,0
2017-07-23T01:34:35.550Z,0
2017-07-23T01:44:49.310Z,0
2017-07-23T01:55:03.863Z,0
2017-07-23T02:05:17.944Z,0
2017-07-23T02:15:32.139Z,0
2017-07-23T02:25:46.739Z,0
2017-07-23T02:36:01.967Z,0
2017-07-23T02:46:16.409Z,0
2017-07-23T02:56:31.464Z,0
2017-07-23T03:06:47.234Z,0
2017-07-23T03:17:02.105Z,0
2017-07-23T03:27:16.772Z,0
2017-07-23T03:37:32.475Z,5
2017-07-23T03:47:48.105Z,10
2017-07-23T03:58:01.900Z,5
2017-07-23T04:08:17.243Z,25
2017-07-23T04:18:31.070Z,45
2017-07-23T04:28:46.662Z,15
2017-07-23T04:39:02.165Z,15
2017-07-23T04:49:17.871Z,20
2017-07-23T04:59:32.018Z,45
2017-07-23T05:09:47.723Z,85
2017-07-23T05:20:03.496Z,155
2017-07-23T05:30:17.978Z,310
2017-07-23T05:40:32.050Z,250
2017-07-23T05:50:47.719Z,460
2017-07-23T06:01:02.501Z,385
2017-07-23T06:11:18.165Z,330
2017-07-23T06:21:32.127Z,740
2017-07-23T06:31:46.268Z,905
2017-07-23T06:42:00.207Z,965
2017-07-23T06:52:14.432Z,1025
2017-07-23T07:02:29.483Z,1170
2017-07-23T07:12:43.900Z,490
2017-07-23T07:22:58.096Z,565
2017-07-23T07:33:13.607Z,1530
2017-07-23T07:43:28.883Z,1735
2017-07-23T07:53:44.789Z,705
2017-07-23T08:04:00.172Z,645
2017-07-23T08:14:15.901Z,940
2017-07-23T08:24:31.265Z,920
2017-07-23T08:34:45.498Z,1680
2017-07-23T08:45:00.967Z,1835
2017-07-23T08:55:15.749Z,835
2017-07-23T09:05:31.093Z,1575
2017-07-23T09:15:46.812Z,645
2017-07-23T09:26:00.763Z,410
2017-07-23T09:36:16.153Z,240
2017-07-23T09:46:30.030Z,445
2017-07-23T09:56:44.428Z,280
2017-07-23T10:06:59.789Z,930
2017-07-23T10:17:14.440Z,170
2017-07-23T10:27:29.234Z,230
2017-07-23T10:37:43.439Z,395
2017-07-23T10:47:58.831Z,270
2017-07-23T10:58:13.807Z,720
2017-07-23T11:08:27.836Z,440
2017-07-23T11:18:43.096Z,720
2017-07-23T11:28:57.398Z,1115
2017-07-23T11:39:13.250Z,2405
2017-07-23T11:49:28.779Z,1245
2017-07-23T11:59:43.836Z,1900
2017-07-23T12:09:58.046Z,1300
2017-07-23T12:20:13.380Z,2440
2017-07-23T12:30:28.823Z,2070
2017-07-23T12:40:44.202Z,730
2017-07-23T12:50:59.044Z,1950
2017-07-23T13:01:13.513Z,595
2017-07-23T13:11:28.524Z,730
2017-07-23T13:21:43.410Z,1000
2017-07-23T13:31:58.651Z,1890
2017-07-23T13:42:13.117Z,4040
2017-07-23T13:52:28.760Z,2755
2017-07-23T14:02:43.722Z,2275
2017-07-23T14:12:57.997Z,3005
2017-07-23T14:23:12.205Z,665
2017-07-23T14:33:27.565Z,1780
2017-07-23T14:43:42.366Z,660
2017-07-23T14:53:56.699Z,1870
2017-07-23T15:04:12.360Z,1845
2017-07-23T15:14:28.193Z,1755
2017-07-23T15:24:43.419Z,440
2017-07-23T15:34:59.053Z,340
2017-07-23T15:45:14.163Z,760
2017-07-23T15:55:29.364Z,1390
2017-07-23T16:05:44.909Z,765
2017-07-23T16:16:00.098Z,990
2017-07-23T16:26:15.048Z,1380
2017-07-23T16:36:29.556Z,1200
2017-07-23T16:46:44.514Z,1015
2017-07-23T16:56:59.230Z,375
2017-07-23T17:07:13.845Z,485
2017-07-23T17:17:28.918Z,130
2017-07-23T17:27:42.774Z,75
2017-07-23T17:37:58.667Z,25
2017-07-23T17:48:13.325Z,45
2017-07-23T17:58:28.151Z,75
2017-07-23T18:08:43.101Z,140
2017-07-23T18:18:58.752Z,130
2017-07-23T18:29:12.728Z,90
2017-07-23T18:39:26.810Z,45
2017-07-23T18:49:41.128Z,75
2017-07-23T18:59:55.431Z,55
2017-07-23T19:10:11.060Z,30
2017-07-23T19:20:25.997Z,15
2017-07-23T19:30:41.047Z,5
2017-07-23T19:40:56.179Z,0
2017-07-23T19:51:10.220Z,0
2017-07-23T20:01:25.529Z,0
2017-07-23T20:11:41.420Z,0
2017-07-23T20:21:56.405Z,0
2017-07-23T20:32:11.871Z,0
2017-07-23T20:42:26.654Z,0
2017-07-23T20:52:40.982Z,0
2017-07-23T21:02:55.232Z,0
2017-07-23T21:13:09.529Z,0
2017-07-23T21:23:24.457Z,0
2017-07-23T21:33:39.070Z,0
2017-07-23T21:43:53.427Z,0
2017-07-23T21:54:08.026Z,0
2017-07-23T22:04:22.875Z,0
2017-07-23T22:14:38.289Z,0
2017-07-23T22:24:53.906Z,0
2017-07-23T22:35:09.040Z,0
2017-07-23T22:45:23.242Z,0
2017-07-23T22:55:38.973Z,0
2017-07-23T23:05:54.279Z,0
2017-07-23T23:16:09.329Z,0
2017-07-23T23:26:23.117Z,0
2017-07-23T23:36:38.656Z,0
2017-07-23T23:46:53.925Z,0
2017-07-23T23:57:08.869Z,0
